Time;durP1;ratioP1;P1;durP2;ratioP2;P2;SDS_P1;SDS_P2;PMS_P1;PMS_P2;Temp;Humidity;BMP_temperature;BMP_pressure;BME280_temperature;BME280_humidity;BME280_pressure;Samples;Min_cycle;Max_cycle;Signal;HPM_P1;HPM_P2
2022/01/02 00:00:22;;;;;;;39.40;16.75;;;;;;;8.03;100.00;99793.56;4976540;28;20552;-61
2022/01/02 00:02:55;;;;;;;38.63;16.60;;;;;;;7.99;100.00;99812.69;4969546;28;20088;-60
2022/01/02 00:05:21;;;;;;;34.50;16.25;;;;;;;7.94;100.00;99807.16;4973590;28;20512;-60
2022/01/02 00:08:13;;;;;;;31.98;16.33;;;;;;;7.94;100.00;99812.50;4969678;28;20842;-60
2022/01/02 00:10:49;;;;;;;32.58;15.73;;;;;;;7.94;100.00;99795.66;4991354;28;20066;-59
2022/01/02 00:13:23;;;;;;;33.75;15.90;;;;;;;7.90;100.00;99800.59;4978778;28;20106;-59
2022/01/02 00:15:50;;;;;;;35.70;15.10;;;;;;;7.81;100.00;99799.16;4968456;28;20069;-59
2022/01/02 00:18:16;;;;;;;26.40;14.13;;;;;;;7.79;100.00;99795.91;4961213;28;20133;-60
2022/01/02 00:20:47;;;;;;;31.50;13.75;;;;;;;7.75;100.00;99792.03;4981156;28;20089;-60
2022/01/02 00:23:18;;;;;;;26.35;12.60;;;;;;;7.89;100.00;99771.47;4974691;28;20039;-60
2022/01/02 00:25:44;;;;;;;37.83;14.77;;;;;;;7.87;100.00;99769.00;4971952;28;20085;-59
2022/01/02 00:28:10;;;;;;;33.30;15.63;;;;;;;7.93;100.00;99773.47;4969451;28;20436;-60
2022/01/02 00:30:36;;;;;;;29.48;15.15;;;;;;;7.88;100.00;99759.94;4974874;28;20094;-59
2022/01/02 00:33:01;;;;;;;34.10;15.60;;;;;;;7.90;100.00;99755.22;4988112;28;20027;-60
2022/01/02 00:35:27;;;;;;;37.05;15.07;;;;;;;7.83;100.00;99765.09;4974684;28;20404;-59
2022/01/02 00:37:52;;;;;;;29.08;14.10;;;;;;;7.80;100.00;99756.69;4978414;28;20929;-62
2022/01/02 00:40:18;;;;;;;28.23;13.82;;;;;;;7.89;100.00;99752.78;4976310;28;20082;-60
2022/01/02 00:42:43;;;;;;;32.88;14.07;;;;;;;7.89;100.00;99750.91;4972100;28;20034;-59
2022/01/02 00:45:16;;;;;;;30.95;13.52;;;;;;;7.89;100.00;99756.25;4970307;28;20059;-59
2022/01/02 00:47:54;;;;;;;26.00;12.70;;;;;;;7.89;100.00;99740.25;4974898;28;20026;-59
2022/01/02 00:50:41;;;;;;;25.25;12.90;;;;;;;7.88;100.00;99741.25;4972259;28;20520;-59
2022/01/02 00:53:09;;;;;;;30.10;14.10;;;;;;;7.81;100.00;99727.13;4971677;28;20424;-59
2022/01/02 00:55:35;;;;;;;30.50;14.27;;;;;;;7.85;100.00;99727.53;4971676;28;20116;-59
2022/01/02 00:58:02;;;;;;;29.35;13.55;;;;;;;7.80;100.00;99736.16;4966425;28;20035;-59
2022/01/02 01:00:28;;;;;;;31.42;13.35;;;;;;;7.76;100.00;99724.28;4978002;28;20177;-60
2022/01/02 01:02:58;;;;;;;28.65;13.27;;;;;;;7.83;100.00;99730.41;4970058;28;20026;-59
2022/01/02 01:05:26;;;;;;;31.77;13.85;;;;;;;7.72;100.00;99718.53;4975717;28;20038;-59
2022/01/02 01:07:55;;;;;;;29.95;14.55;;;;;;;7.66;100.00;99713.22;4966993;28;20058;-59
2022/01/02 01:10:21;;;;;;;25.38;13.95;;;;;;;7.67;100.00;99720.22;4969619;28;20458;-59
2022/01/02 01:12:52;;;;;;;25.92;13.27;;;;;;;7.62;100.00;99720.84;4978318;28;20138;-60
2022/01/02 01:15:17;;;;;;;21.65;11.50;;;;;;;7.74;100.00;99705.00;4971095;28;20121;-59
2022/01/02 01:17:43;;;;;;;28.45;13.55;;;;;;;7.73;100.00;99714.84;4991737;28;20033;-59
2022/01/02 01:20:09;;;;;;;27.92;13.63;;;;;;;7.75;100.00;99725.31;4969193;28;20026;-59
2022/01/02 01:22:35;;;;;;;25.63;13.27;;;;;;;7.73;100.00;99735.38;4973594;28;20145;-61
2022/01/02 01:25:00;;;;;;;29.10;12.73;;;;;;;7.77;100.00;99731.25;4969277;28;20571;-61
2022/01/02 01:27:27;;;;;;;32.00;13.10;;;;;;;7.73;100.00;99730.84;4971918;28;20046;-62
2022/01/02 01:29:52;;;;;;;25.13;12.23;;;;;;;7.71;100.00;99732.94;4960392;28;20030;-59
2022/01/02 01:32:18;;;;;;;26.15;12.07;;;;;;;7.69;100.00;99728.84;4968497;28;20039;-59
2022/01/02 01:34:43;;;;;;;26.85;13.05;;;;;;;7.71;100.00;99729.41;4973539;28;20026;-59
2022/01/02 01:37:08;;;;;;;23.92;12.20;;;;;;;7.79;100.00;99729.19;4969246;28;20042;-59
2022/01/02 01:39:34;;;;;;;25.65;12.68;;;;;;;7.79;100.00;99718.53;4974919;28;20030;-59
2022/01/02 01:42:07;;;;;;;24.40;11.43;;;;;;;7.79;100.00;99710.53;4975707;28;20238;-59
2022/01/02 01:47:14;;;;;;;24.35;11.80;;;;;;;7.93;100.00;99725.41;4969225;28;20569;-61
2022/01/02 01:49:39;;;;;;;23.05;11.43;;;;;;;7.89;100.00;99723.41;4967836;28;20026;-61
2022/01/02 01:52:05;;;;;;;23.80;12.00;;;;;;;7.86;100.00;99719.31;4988740;28;20069;-61
2022/01/02 01:54:30;;;;;;;25.33;11.63;;;;;;;7.80;100.00;99714.00;4975987;28;20031;-60
2022/01/02 01:56:56;;;;;;;21.17;11.57;;;;;;;7.83;100.00;99719.72;4974077;28;20031;-59
2022/01/02 01:59:21;;;;;;;25.52;12.55;;;;;;;7.83;100.00;99721.59;4966347;28;20039;-59
2022/01/02 02:01:47;;;;;;;23.85;10.90;;;;;;;7.79;100.00;99718.53;4974187;28;20031;-60
2022/01/02 02:04:13;;;;;;;20.05;10.82;;;;;;;7.75;100.00;99725.31;4975117;28;20100;-59
2022/01/02 02:06:38;;;;;;;24.23;11.65;;;;;;;7.80;100.00;99730.03;4968058;28;20065;-59
2022/01/02 02:09:04;;;;;;;22.92;12.02;;;;;;;7.72;100.00;99723.06;4962258;28;20030;-59
2022/01/02 02:11:30;;;;;;;27.02;12.02;;;;;;;7.77;100.00;99731.25;4969498;28;20144;-61
2022/01/02 02:13:55;;;;;;;19.15;10.23;;;;;;;7.75;100.00;99727.97;4969363;28;20172;-59
2022/01/02 02:16:21;;;;;;;25.45;11.98;;;;;;;7.71;100.00;99726.75;4970091;28;20137;-59
2022/01/02 02:18:47;;;;;;;22.50;9.73;;;;;;;7.86;100.00;99729.16;4970154;28;20030;-59
2022/01/02 02:21:12;;;;;;;19.88;10.63;;;;;;;7.86;100.00;99735.34;4966861;28;20041;-58
2022/01/02 02:23:37;;;;;;;24.95;10.55;;;;;;;7.81;100.00;99721.78;4967324;28;20030;-59
2022/01/02 02:26:03;;;;;;;19.85;9.52;;;;;;;7.85;100.00;99732.88;4970356;28;20116;-59
2022/01/02 02:28:28;;;;;;;21.83;10.88;;;;;;;7.81;100.00;99720.97;4976031;28;20022;-61
2022/01/02 02:30:54;;;;;;;18.92;9.70;;;;;;;7.80;100.00;99704.16;4974068;28;20108;-59
2022/01/02 02:33:19;;;;;;;22.20;10.38;;;;;;;7.82;100.00;99702.09;4981612;28;20046;-59
2022/01/02 02:35:46;;;;;;;17.88;10.43;;;;;;;7.77;100.00;99713.41;4977023;28;20034;-59
2022/01/02 02:38:12;;;;;;;14.70;7.10;;;;;;;7.80;100.00;99698.81;4971864;28;20145;-59
2022/01/02 02:40:38;;;;;;;20.73;10.05;;;;;;;7.80;100.00;99698.00;4967766;28;20814;-59
2022/01/02 02:43:09;;;;;;;20.33;10.65;;;;;;;7.78;100.00;99711.53;4970504;28;20125;-59
2022/01/02 02:51:12;;;;;;;18.50;9.57;;;;;;;7.71;100.00;99676.06;4969840;28;20058;-59
2022/01/02 02:53:42;;;;;;;17.55;8.88;;;;;;;7.69;100.00;99672.81;4969873;28;20424;-59
2022/01/02 02:56:17;;;;;;;22.15;10.95;;;;;;;7.71;100.00;99679.56;4967703;28;20053;-60
2022/01/02 02:58:43;;;;;;;16.58;10.43;;;;;;;7.70;100.00;99661.91;4969721;28;20125;-60
2022/01/02 03:01:13;;;;;;;18.90;9.80;;;;;;;7.71;100.00;99657.38;4969213;28;20045;-59
2022/01/02 03:03:39;;;;;;;20.85;8.80;;;;;;;7.72;100.00;99649.19;4968860;28;20033;-59
2022/01/02 03:06:04;;;;;;;20.10;10.18;;;;;;;7.74;100.00;99652.44;4966849;28;20054;-60
2022/01/02 03:08:30;;;;;;;19.98;9.75;;;;;;;7.75;100.00;99654.06;4973789;28;20180;-59
2022/01/02 03:10:56;;;;;;;17.75;10.23;;;;;;;7.72;100.00;99651.84;4972956;28;20038;-59
2022/01/02 03:13:21;;;;;;;15.57;8.80;;;;;;;7.70;100.00;99645.09;4964422;28;20030;-60
2022/01/02 03:15:47;;;;;;;17.65;7.30;;;;;;;7.69;100.00;99649.59;4969643;28;20042;-59
2022/01/02 03:18:12;;;;;;;17.45;8.88;;;;;;;7.66;100.00;99651.88;4966357;28;20027;-61
2022/01/02 03:20:38;;;;;;;16.23;8.32;;;;;;;7.67;100.00;99649.00;4968986;28;20042;-61
2022/01/02 03:23:03;;;;;;;23.65;10.38;;;;;;;7.67;100.00;99650.84;4969554;28;20041;-61
2022/01/02 03:25:28;;;;;;;21.52;10.85;;;;;;;7.66;100.00;99639.38;4965882;28;20039;-60
2022/01/02 03:27:54;;;;;;;18.75;9.75;;;;;;;7.62;100.00;99632.00;4971647;28;20022;-61
2022/01/02 03:30:19;;;;;;;17.92;9.57;;;;;;;7.63;100.00;99633.63;4969856;28;20035;-61
2022/01/02 03:32:45;;;;;;;19.23;9.18;;;;;;;7.61;100.00;99633.00;4968987;28;20030;-61
2022/01/02 03:35:10;;;;;;;18.10;8.63;;;;;;;7.56;100.00;99634.50;4973329;28;20054;-61
2022/01/02 03:37:35;;;;;;;18.55;9.10;;;;;;;7.57;100.00;99630.78;4972366;28;20022;-61
2022/01/02 03:40:03;;;;;;;19.77;10.02;;;;;;;7.57;100.00;99635.31;4970816;28;20035;-61
2022/01/02 03:42:28;;;;;;;20.55;8.93;;;;;;;7.59;100.00;99637.75;4971610;28;20023;-61
2022/01/02 03:44:57;;;;;;;22.55;11.93;;;;;;;7.53;100.00;99640.22;4972819;28;20342;-59
2022/01/02 03:47:22;;;;;;;22.92;10.88;;;;;;;7.53;100.00;99639.41;4985902;28;20795;-59
2022/01/02 03:49:48;;;;;;;21.73;10.60;;;;;;;7.47;100.00;99625.09;4973720;28;20026;-59
2022/01/02 03:52:13;;;;;;;24.27;10.45;;;;;;;7.50;100.00;99619.31;4975255;28;20046;-59
2022/01/02 03:54:39;;;;;;;19.77;10.27;;;;;;;7.55;100.00;99619.50;4972074;28;20022;-59
2022/01/02 03:57:04;;;;;;;20.25;10.98;;;;;;;7.48;100.00;99621.38;4968180;28;20042;-59
2022/01/02 03:59:30;;;;;;;23.48;10.80;;;;;;;7.46;100.00;99622.63;4969450;28;20030;-59
2022/01/02 04:01:55;;;;;;;18.30;8.75;;;;;;;7.41;100.00;99609.91;4971888;28;20058;-59
2022/01/02 04:04:20;;;;;;;17.42;8.80;;;;;;;7.42;100.00;99611.56;4972746;28;20046;-59
2022/01/02 04:06:46;;;;;;;21.30;10.43;;;;;;;7.47;100.00;99617.09;4985477;28;20042;-61
2022/01/02 04:09:11;;;;;;;17.33;9.80;;;;;;;7.49;100.00;99607.03;4976427;28;20158;-59
2022/01/02 04:11:37;;;;;;;21.88;9.98;;;;;;;7.50;100.00;99603.31;4974602;28;20042;-59
2022/01/02 04:14:02;;;;;;;21.00;10.70;;;;;;;7.48;100.00;99605.38;4975609;28;20030;-59
2022/01/02 04:16:28;;;;;;;20.05;10.65;;;;;;;7.53;100.00;99592.22;4972000;28;20101;-59
2022/01/02 04:18:53;;;;;;;19.33;8.95;;;;;;;7.49;100.00;99580.34;4972151;28;20274;-58
2022/01/02 04:21:18;;;;;;;19.90;10.02;;;;;;;7.51;100.00;99574.78;4972987;28;20050;-61
2022/01/02 04:23:44;;;;;;;17.48;9.23;;;;;;;7.50;100.00;99581.97;4977962;28;20069;-61
2022/01/02 04:26:09;;;;;;;21.73;9.63;;;;;;;7.51;100.00;99580.97;4975275;28;20666;-61
2022/01/02 04:28:35;;;;;;;20.15;9.68;;;;;;;7.50;100.00;99571.31;4972591;28;20463;-61
2022/01/02 04:31:00;;;;;;;17.88;9.07;;;;;;;7.47;100.00;99574.41;4965047;28;20043;-61
2022/01/02 04:33:25;;;;;;;20.63;9.32;;;;;;;7.48;100.00;99575.22;4972028;28;20346;-60
2022/01/02 04:35:51;;;;;;;18.77;9.18;;;;;;;7.52;100.00;99577.25;4971092;28;20042;-59
2022/01/02 04:38:16;;;;;;;21.60;8.07;;;;;;;7.53;100.00;99578.88;4972811;28;20571;-60
2022/01/02 04:40:42;;;;;;;18.27;10.38;;;;;;;7.49;100.00;99583.03;4961958;28;20050;-59
2022/01/02 04:43:07;;;;;;;17.08;9.02;;;;;;;7.51;100.00;99588.97;4972491;28;20031;-61
2022/01/02 04:45:33;;;;;;;9.80;5.30;;;;;;;7.55;100.00;99587.50;4967139;28;20051;-60
2022/01/02 04:47:58;;;;;;;15.75;8.07;;;;;;;7.57;100.00;99577.44;4973484;28;20023;-60
2022/01/02 04:50:24;;;;;;;16.98;9.10;;;;;;;7.56;100.00;99575.81;4973512;28;20045;-60
2022/01/02 04:52:49;;;;;;;18.95;10.20;;;;;;;7.57;100.00;99572.09;4966834;28;20038;-61
2022/01/02 04:55:14;;;;;;;19.02;10.45;;;;;;;7.58;100.00;99567.56;4966674;28;20034;-60
2022/01/02 04:57:40;;;;;;;19.85;9.27;;;;;;;7.54;100.00;99585.88;4973427;28;20023;-60
2022/01/02 05:00:06;;;;;;;19.23;8.93;;;;;;;7.62;100.00;99587.47;4969397;28;20034;-61
2022/01/02 05:02:32;;;;;;;16.55;9.85;;;;;;;7.57;100.00;99584.63;4972306;28;20517;-61
2022/01/02 05:04:57;;;;;;;18.63;8.70;;;;;;;7.64;100.00;99577.41;4968544;28;20125;-60
2022/01/02 05:07:22;;;;;;;19.23;9.32;;;;;;;7.60;100.00;99568.19;4966115;28;20079;-61
2022/01/02 05:09:48;;;;;;;19.20;9.07;;;;;;;7.56;100.00;99562.47;4976420;28;20401;-61
2022/01/02 05:12:13;;;;;;;16.33;8.48;;;;;;;7.52;100.00;99568.44;4968992;28;20058;-61
2022/01/02 05:14:39;;;;;;;18.23;8.85;;;;;;;7.50;100.00;99565.97;4970253;28;20042;-61
2022/01/02 05:17:04;;;;;;;16.15;8.90;;;;;;;7.59;100.00;99552.38;4973603;28;20763;-61
2022/01/02 05:19:30;;;;;;;15.85;8.80;;;;;;;7.52;100.00;99565.78;4967844;28;20046;-61
2022/01/02 05:21:55;;;;;;;17.58;8.18;;;;;;;7.55;100.00;99568.00;4970819;28;20049;-61
2022/01/02 05:24:20;;;;;;;20.10;8.55;;;;;;;7.52;100.00;99569.25;4964664;28;20042;-61
2022/01/02 05:26:46;;;;;;;18.83;9.63;;;;;;;7.49;100.00;99568.88;4974933;28;20054;-61
2022/01/02 05:29:11;;;;;;;16.17;9.43;;;;;;;7.45;100.00;99570.31;4971381;28;20027;-60
2022/01/02 05:31:37;;;;;;;18.55;9.68;;;;;;;7.42;100.00;99560.91;4979123;28;20043;-61
2022/01/02 05:34:03;;;;;;;19.73;8.27;;;;;;;7.43;100.00;99551.03;4966285;28;20508;-61
2022/01/02 05:36:29;;;;;;;16.38;9.15;;;;;;;7.37;100.00;99539.41;4973333;28;20043;-61
2022/01/02 05:38:54;;;;;;;19.15;9.00;;;;;;;7.39;100.00;99542.66;4970250;28;20041;-60
2022/01/02 05:41:20;;;;;;;19.88;8.98;;;;;;;7.42;100.00;99536.09;4968543;28;20042;-61
2022/01/02 05:43:45;;;;;;;18.35;9.57;;;;;;;7.42;100.00;99534.22;4967588;28;20042;-61
2022/01/02 05:46:10;;;;;;;21.95;9.95;;;;;;;7.42;100.00;99526.22;4963699;28;21584;-59
2022/01/02 05:48:38;;;;;;;19.90;9.88;;;;;;;7.40;100.00;99533.63;4966645;28;20084;-61
2022/01/02 05:51:04;;;;;;;20.50;9.95;;;;;;;7.43;100.00;99533.19;4965721;28;20101;-61
2022/01/02 05:53:30;;;;;;;18.27;9.43;;;;;;;7.42;100.00;99536.09;4977130;28;20054;-59
2022/01/02 05:55:55;;;;;;;16.83;8.57;;;;;;;7.41;100.00;99537.09;4969539;28;20057;-59
2022/01/02 05:58:21;;;;;;;20.45;9.77;;;;;;;7.42;100.00;99531.56;4970889;28;20026;-59
2022/01/02 06:00:46;;;;;;;16.00;9.30;;;;;;;7.39;100.00;99516.00;4979190;28;20046;-59
2022/01/02 06:03:12;;;;;;;14.27;8.25;;;;;;;7.34;100.00;99507.81;4966507;28;20023;-59
2022/01/02 06:05:37;;;;;;;19.35;9.30;;;;;;;7.37;100.00;99501.25;4966182;28;20053;-59
2022/01/02 06:08:03;;;;;;;15.57;8.95;;;;;;;7.39;100.00;99510.66;4966832;28;20034;-61
2022/01/02 06:10:28;;;;;;;14.65;8.77;;;;;;;7.35;100.00;99509.44;4968323;28;20050;-59
2022/01/02 06:12:54;;;;;;;16.50;8.68;;;;;;;7.45;100.00;99504.47;4973903;28;20054;-59
2022/01/02 06:15:19;;;;;;;16.88;9.02;;;;;;;7.38;100.00;99500.19;4974496;28;20046;-59
2022/01/02 06:17:44;;;;;;;15.45;8.48;;;;;;;7.52;100.00;99502.56;4976971;28;20026;-61
2022/01/02 06:20:10;;;;;;;18.33;9.25;;;;;;;7.45;100.00;99484.97;4970094;28;20038;-60
2022/01/02 06:22:35;;;;;;;17.40;9.45;;;;;;;7.46;100.00;99490.13;4975984;28;20089;-61
2022/01/02 06:25:01;;;;;;;16.25;8.38;;;;;;;7.43;100.00;99485.19;4960672;28;20108;-61
2022/01/02 06:27:26;;;;;;;15.93;8.77;;;;;;;7.44;100.00;99489.50;4969296;28;20034;-59
2022/01/02 06:29:51;;;;;;;17.55;9.10;;;;;;;7.38;100.00;99492.19;4969893;28;20026;-61
2022/01/02 06:32:17;;;;;;;13.32;8.52;;;;;;;7.34;100.00;99489.16;4970551;28;20502;-61
2022/01/02 06:34:44;;;;;;;16.13;8.68;;;;;;;7.41;100.00;99487.25;4965317;28;20795;-61
2022/01/02 06:37:09;;;;;;;14.35;8.63;;;;;;;7.43;100.00;99474.53;4970014;28;20158;-61
2022/01/02 06:39:35;;;;;;;15.73;8.52;;;;;;;7.46;100.00;99478.59;4973704;28;20034;-61
2022/01/02 06:42:00;;;;;;;14.95;7.95;;;;;;;7.47;99.69;99470.41;4970500;28;20041;-60
2022/01/02 06:44:26;;;;;;;15.05;7.50;;;;;;;7.43;99.37;99473.72;4970661;28;20043;-60
2022/01/02 06:46:52;;;;;;;18.80;8.25;;;;;;;7.42;99.43;99477.41;4975326;28;20517;-60
2022/01/02 06:49:17;;;;;;;15.43;8.57;;;;;;;7.41;99.64;99473.91;4972756;28;20033;-60
2022/01/02 06:51:42;;;;;;;15.65;7.97;;;;;;;7.41;99.29;99471.25;4969242;28;20453;-61
2022/01/02 06:54:08;;;;;;;14.07;7.53;;;;;;;7.46;99.16;99455.44;4971608;28;20026;-61
2022/01/02 06:56:33;;;;;;;14.80;7.47;;;;;;;7.45;99.19;99460.97;4963748;28;20053;-60
2022/01/02 06:58:59;;;;;;;16.73;7.82;;;;;;;7.46;98.75;99446.59;4968701;28;20030;-60
2022/01/02 07:01:24;;;;;;;13.52;7.60;;;;;;;7.41;99.19;99435.75;4973002;28;20038;-61
2022/01/02 07:03:49;;;;;;;13.63;7.65;;;;;;;7.41;99.34;99439.25;4971445;28;20074;-60
2022/01/02 07:06:15;;;;;;;13.05;7.88;;;;;;;7.41;99.05;99431.25;4967811;28;20043;-61
2022/01/02 07:08:40;;;;;;;12.68;6.85;;;;;;;7.40;98.76;99429.63;4974120;28;20022;-60
2022/01/02 07:11:07;;;;;;;12.43;5.20;;;;;;;7.37;99.07;99415.91;4980093;28;20049;-60
2022/01/02 07:13:33;;;;;;;12.27;7.38;;;;;;;7.33;99.08;99426.19;4971734;28;20303;-60
2022/01/02 07:15:58;;;;;;;14.73;7.35;;;;;;;7.34;99.26;99427.84;4974716;28;20081;-60
2022/01/02 07:18:24;;;;;;;11.90;7.25;;;;;;;7.31;99.26;99426.41;4969853;28;20212;-60
2022/01/02 07:20:49;;;;;;;16.13;7.88;;;;;;;7.26;99.35;99418.25;4989685;28;20046;-60
2022/01/02 07:23:14;;;;;;;13.95;7.28;;;;;;;7.26;99.61;99414.75;4972975;28;20542;-60
2022/01/02 07:25:40;;;;;;;13.02;7.30;;;;;;;7.28;98.93;99408.16;4975358;28;20504;-60
2022/01/02 07:28:05;;;;;;;15.70;7.35;;;;;;;7.28;98.49;99412.69;4971525;28;20034;-60
2022/01/02 07:30:31;;;;;;;16.25;7.63;;;;;;;7.30;99.03;99413.28;4974574;28;20394;-61
2022/01/02 07:33:01;;;;;;;13.50;7.20;;;;;;;7.34;98.70;99428.66;4973232;28;20018;-60
2022/01/02 07:35:28;;;;;;;12.32;7.13;;;;;;;7.29;98.77;99430.34;4975828;28;20318;-60
2022/01/02 07:37:54;;;;;;;13.05;7.80;;;;;;;7.30;99.09;99439.94;4967379;28;20065;-61
2022/01/02 07:40:19;;;;;;;12.57;6.45;;;;;;;7.30;98.61;99437.28;4967510;28;20508;-60
2022/01/02 07:42:44;;;;;;;13.65;6.78;;;;;;;7.33;98.23;99434.19;4972124;28;20042;-60
2022/01/02 07:45:10;;;;;;;13.90;5.82;;;;;;;7.37;98.07;99439.91;4977793;28;20568;-60
2022/01/02 07:47:38;;;;;;;9.82;5.80;;;;;;;7.39;97.15;99425.34;4972121;28;20038;-60
2022/01/02 07:50:03;;;;;;;12.13;6.45;;;;;;;7.37;97.08;99426.59;4975198;28;20070;-60
2022/01/02 07:52:29;;;;;;;10.98;6.65;;;;;;;7.27;97.91;99419.88;4974901;28;20034;-60
2022/01/02 07:54:54;;;;;;;10.18;6.25;;;;;;;7.24;98.51;99428.31;4980486;28;20038;-60
2022/01/02 07:57:20;;;;;;;13.82;7.05;;;;;;;7.19;98.91;99427.31;4974795;28;20047;-60
2022/01/02 07:59:45;;;;;;;15.05;8.00;;;;;;;7.23;98.87;99407.19;4972780;28;20030;-61
2022/01/02 08:02:11;;;;;;;12.77;6.75;;;;;;;7.24;98.62;99406.13;4971473;28;20154;-60
2022/01/02 08:04:36;;;;;;;12.15;6.60;;;;;;;7.22;98.38;99393.03;4970718;28;20488;-60
2022/01/02 08:07:01;;;;;;;12.45;6.65;;;;;;;7.09;99.04;99382.50;4974040;28;20579;-60
2022/01/02 08:09:27;;;;;;;16.55;7.90;;;;;;;7.10;99.70;99379.59;4978822;28;20050;-60
2022/01/02 08:11:52;;;;;;;12.90;7.22;;;;;;;7.18;99.10;99375.03;4968533;28;20043;-60
2022/01/02 08:14:18;;;;;;;16.95;7.95;;;;;;;7.16;99.31;99371.75;4972388;28;20037;-60
2022/01/02 08:16:43;;;;;;;12.95;7.28;;;;;;;7.22;99.11;99377.06;4969413;28;20129;-60
2022/01/02 08:19:10;;;;;;;12.02;7.07;;;;;;;7.19;98.80;99371.31;4961785;28;20081;-60
2022/01/02 08:21:35;;;;;;;11.55;6.78;;;;;;;7.15;98.97;99348.81;4970775;28;20485;-60
2022/01/02 08:24:01;;;;;;;12.88;7.43;;;;;;;7.17;98.65;99342.22;4972607;28;20041;-60
2022/01/02 08:26:27;;;;;;;12.10;6.72;;;;;;;7.29;98.12;99329.03;4971852;28;20057;-60
2022/01/02 08:28:53;;;;;;;11.90;7.18;;;;;;;7.31;97.25;99341.09;4970218;28;20035;-60
2022/01/02 08:31:18;;;;;;;9.77;6.25;;;;;;;7.44;96.37;99326.81;4975418;28;20047;-59
2022/01/02 08:33:43;;;;;;;10.00;4.43;;;;;;;7.67;93.02;99350.19;4969458;28;20058;-59
2022/01/02 08:36:09;;;;;;;11.00;6.32;;;;;;;7.65;93.28;99354.13;4972586;28;20042;-60
2022/01/02 08:38:35;;;;;;;9.57;5.32;;;;;;;7.65;93.33;99346.13;4966198;28;20038;-59
2022/01/02 08:41:00;;;;;;;9.10;5.65;;;;;;;7.72;92.74;99338.88;4977143;28;20089;-59
2022/01/02 08:43:25;;;;;;;9.52;5.30;;;;;;;7.80;91.88;99335.91;4975172;28;20077;-58
2022/01/02 08:45:51;;;;;;;8.75;5.65;;;;;;;7.75;91.89;99325.88;4972158;28;21016;-62
2022/01/02 08:48:16;;;;;;;9.30;5.53;;;;;;;7.73;93.57;99324.47;4967892;28;20783;-59
2022/01/02 08:50:42;;;;;;;8.98;5.28;;;;;;;7.67;93.19;99322.72;4974656;28;20046;-59
2022/01/02 08:53:07;;;;;;;11.55;5.70;;;;;;;7.68;93.67;99335.81;4974884;28;20027;-59
2022/01/02 08:55:34;;;;;;;10.63;5.72;;;;;;;7.67;94.31;99326.19;4973439;28;20050;-59
2022/01/02 08:58:00;;;;;;;10.63;5.80;;;;;;;7.56;94.56;99319.75;4973493;28;20049;-59
2022/01/02 09:00:25;;;;;;;14.57;5.95;;;;;;;7.50;94.71;99325.94;4970206;28;20039;-59
2022/01/02 09:02:51;;;;;;;11.57;6.07;;;;;;;7.46;95.01;99332.75;4973814;28;20092;-59
2022/01/02 09:05:16;;;;;;;11.75;6.15;;;;;;;7.48;95.00;99322.66;4978048;28;20034;-59
2022/01/02 09:07:41;;;;;;;9.93;5.95;;;;;;;7.53;94.39;99336.16;4969622;28;20033;-59
2022/01/02 09:10:07;;;;;;;11.13;5.70;;;;;;;7.41;94.89;99318.44;4976372;28;20568;-59
2022/01/02 09:12:33;;;;;;;12.40;5.40;;;;;;;7.45;94.87;99323.13;4973193;28;20034;-59
2022/01/02 09:14:58;;;;;;;7.95;5.15;;;;;;;7.41;94.64;99327.25;4967880;28;20053;-59
2022/01/02 09:17:23;;;;;;;9.38;5.43;;;;;;;7.41;94.83;99311.25;4970503;28;20508;-59
2022/01/02 09:19:51;;;;;;;6.18;3.58;;;;;;;7.44;94.25;99294.81;4974986;28;20085;-59
2022/01/02 09:22:17;;;;;;;11.05;5.65;;;;;;;7.56;93.69;99301.06;4974673;28;20049;-60
2022/01/02 09:24:42;;;;;;;14.63;5.90;;;;;;;7.71;93.22;99359.41;4967236;28;20026;-60
2022/01/02 09:27:07;;;;;;;9.65;5.35;;;;;;;7.76;92.91;99356.03;4977078;28;20041;-59
2022/01/02 09:29:33;;;;;;;12.23;5.22;;;;;;;7.67;93.33;99347.53;4965819;28;20395;-60
2022/01/02 09:31:58;;;;;;;11.30;5.30;;;;;;;7.81;92.98;99342.03;4968801;28;20592;-59
2022/01/02 09:34:24;;;;;;;9.18;5.55;;;;;;;7.96;91.74;99310.47;4969358;28;20394;-60
2022/01/02 09:36:49;;;;;;;8.30;4.78;;;;;;;8.00;89.71;99325.81;4970890;28;20046;-59
2022/01/02 09:39:15;;;;;;;8.60;5.30;;;;;;;7.96;90.54;99319.31;4969398;28;20035;-60
2022/01/02 09:41:40;;;;;;;8.07;5.10;;;;;;;7.88;90.97;99326.78;4971226;28;20694;-60
2022/01/02 09:44:06;;;;;;;11.18;5.25;;;;;;;7.67;91.96;99315.50;4966578;28;20046;-60
2022/01/02 09:46:31;;;;;;;9.90;5.43;;;;;;;7.67;93.42;99320.03;4971462;28;20367;-60
2022/01/02 09:48:57;;;;;;;8.57;5.80;;;;;;;7.59;94.12;99306.97;4986648;28;20041;-60
2022/01/02 09:51:27;;;;;;;9.90;5.80;;;;;;;7.60;93.92;99305.94;4968887;28;20053;-60
2022/01/02 09:53:53;;;;;;;7.93;5.18;;;;;;;7.53;93.68;99285.47;4973540;28;20031;-60
2022/01/02 09:56:18;;;;;;;8.10;5.20;;;;;;;7.51;94.01;99279.56;4968997;28;20050;-60
2022/01/02 09:58:45;;;;;;;10.63;5.72;;;;;;;7.54;93.84;99263.13;4968948;28;20030;-60
2022/01/02 10:01:37;;;;;;;9.38;5.80;;;;;;;7.62;92.99;99263.88;4967957;28;20047;-60
2022/01/02 10:04:02;;;;;;;9.68;5.65;;;;;;;7.76;94.04;99268.00;4970160;28;20228;-60
2022/01/02 10:06:48;;;;;;;10.27;5.38;;;;;;;7.73;92.72;99276.44;4969189;28;20552;-60
2022/01/02 10:09:28;;;;;;;8.20;4.60;;;;;;;7.81;92.22;99284.16;4962562;28;20034;-60
2022/01/02 10:11:54;;;;;;;9.27;5.00;;;;;;;7.91;92.03;99300.50;4968068;28;20104;-60
2022/01/02 10:14:19;;;;;;;9.05;5.30;;;;;;;7.95;92.22;99336.34;4970193;28;20073;-60
2022/01/02 10:16:45;;;;;;;10.35;4.95;;;;;;;7.99;91.66;99340.22;4966613;28;20046;-60
2022/01/02 10:19:20;;;;;;;9.63;5.07;;;;;;;8.11;90.74;99310.09;4975030;28;20124;-60
2022/01/02 10:21:59;;;;;;;9.02;4.90;;;;;;;8.17;89.99;99302.00;4966781;28;20070;-60
2022/01/02 10:24:29;;;;;;;10.65;4.75;;;;;;;8.13;89.43;99287.47;4968580;28;20038;-61
2022/01/02 10:27:19;;;;;;;8.45;4.95;;;;;;;8.22;89.34;99301.34;4968144;28;20043;-60
2022/01/02 10:29:54;;;;;;;8.52;4.50;;;;;;;8.20;89.26;99271.38;4972105;28;20058;-60
2022/01/02 10:32:35;;;;;;;12.18;5.43;;;;;;;8.23;89.70;99286.13;4964237;28;20090;-60
2022/01/02 10:35:23;;;;;;;11.77;4.95;;;;;;;8.27;89.36;99280.09;4963687;28;20164;-60
2022/01/02 10:37:56;;;;;;;11.05;5.18;;;;;;;8.25;89.20;99255.47;4967942;28;20045;-60
2022/01/02 10:40:31;;;;;;;11.60;4.97;;;;;;;8.35;89.54;99252.28;4965762;28;20166;-60
2022/01/02 10:42:58;;;;;;;8.77;4.65;;;;;;;9.11;87.19;99256.06;4967034;28;20370;-60
2022/01/02 10:45:34;;;;;;;7.82;4.45;;;;;;;9.61;83.35;99258.25;4969700;28;20080;-60
2022/01/02 10:48:02;;;;;;;8.90;5.05;;;;;;;10.21;81.46;99250.81;4988066;28;20046;-60
2022/01/02 10:50:27;;;;;;;11.70;4.63;;;;;;;9.90;80.84;99251.06;4968413;28;20042;-60
2022/01/02 10:52:53;;;;;;;8.35;4.63;;;;;;;10.24;80.78;99243.16;4965583;28;20489;-60
2022/01/02 10:55:19;;;;;;;9.68;4.93;;;;;;;10.56;78.50;99242.69;4967041;28;20054;-60
2022/01/02 10:57:49;;;;;;;7.45;4.90;;;;;;;10.55;78.82;99225.75;4970140;28;20044;-60
2022/01/02 11:00:15;;;;;;;7.60;4.38;;;;;;;10.26;78.31;99230.34;4969964;28;20038;-60
2022/01/02 11:02:41;;;;;;;9.32;4.75;;;;;;;10.69;77.42;99234.31;4973392;28;20049;-60
2022/01/02 11:05:08;;;;;;;7.43;4.80;;;;;;;10.74;76.74;99263.06;4968939;28;20401;-60
2022/01/02 11:07:43;;;;;;;8.18;4.82;;;;;;;10.34;77.51;99258.63;4977423;28;20030;-60
2022/01/02 11:10:10;;;;;;;9.80;4.65;;;;;;;10.40;77.39;99260.34;4972446;28;20035;-60
2022/01/02 11:12:39;;;;;;;5.45;3.88;;;;;;;10.11;77.50;99254.16;4987197;28;20034;-60
2022/01/02 11:15:08;;;;;;;9.82;4.57;;;;;;;10.49;77.69;99250.06;4960932;28;20036;-60
2022/01/02 11:17:35;;;;;;;9.57;4.65;;;;;;;10.26;77.11;99250.91;4986638;28;20172;-60
2022/01/02 11:20:03;;;;;;;9.55;4.70;;;;;;;10.21;76.59;99242.78;4985713;28;20030;-61
2022/01/02 11:22:50;;;;;;;10.00;4.72;;;;;;;10.34;77.03;99239.88;4965015;28;20390;-60
2022/01/02 11:25:27;;;;;;;8.75;4.55;;;;;;;10.27;75.79;99244.53;4964325;28;20037;-60
2022/01/02 11:28:04;;;;;;;8.50;4.43;;;;;;;10.24;75.31;99239.66;4966114;28;20046;-60
2022/01/02 11:30:35;;;;;;;9.07;4.38;;;;;;;10.47;73.77;99266.34;4984523;28;20043;-60
2022/01/02 11:33:12;;;;;;;8.27;4.20;;;;;;;10.49;73.40;99264.25;4973550;28;20026;-60